• Join FlightAware (Why Join?)
  • Login
  • US Flag 
05:21AM EDT


 

Airport Tracker/Info


-or-


 

Live Flight TrackerFlight Track Log ✈ SKW6330 ✈ 01-May-2013 ✈ KFAT - KLAX

Flight Track Log - Related Links

Times and Time Zones

All times are in EDT time to prevent confusion due to time zone crossing. See the SKW6330 flight status page for this flight to view local times or setup timezone preferences in your user account.

Time Position Orientation Groundspeed Altitude Reporting Facility
EDT Latitude Longitude Course Direction KTS MPH feet Rate Location/Type
10:59PM 36.7892 -119.7475 193° South 130 150 1,500  Level Oakland Center
11:00PM 36.7608 -119.7556 193° South 167 192 2,700 1,200 Climbing Oakland Center
11:01PM 36.7164 -119.7214 148° Southeast 189 217 4,000 1,440 Climbing Oakland Center
11:02PM 36.6647 -119.6969 159° South 198 228 5,700 1,620 Climbing Oakland Center
11:03PM 36.6158 -119.6719 158° South 190 219 7,400 1,740 Climbing Oakland Center
11:04PM 36.5561 -119.6469 161° South 190 219 9,300 1,620 Climbing Oakland Center
11:05PM 36.5081 -119.6194 155° Southeast 190 219 10,700 1,440 Climbing Oakland Center
11:06PM 36.4547 -119.5928 158° South 203 234 12,300 1,320 Climbing Oakland Center
11:07PM 36.4019 -119.5642 156° South 206 237 13,400 1,080 Climbing Oakland Center
11:08PM 36.3478 -119.5361 157° South 210 242 14,600 1,080 Climbing Oakland Center
11:09PM 36.2925 -119.5072 157° South 215 247 15,700 900 Climbing Oakland Center
11:10PM 36.2353 -119.4775 157° South 224 258 16,500 780 Climbing Oakland Center
11:11PM 36.1775 -119.4425 154° Southeast 232 267 17,400 780 Climbing Oakland Center
11:12PM 36.1169 -119.4075 155° Southeast 239 275 18,100 780 Climbing Oakland Center
11:13PM 36.0569 -119.3719 154° Southeast 239 275 19,000 780 Climbing Oakland Center
11:14PM 35.9983 -119.3372 154° Southeast 236 272 19,800 600 Climbing Oakland Center
11:15PM 35.9381 -119.3031 155° Southeast 236 272 20,300 540 Climbing Oakland Center
11:16PM 35.8594 -119.2575 155° Southeast 251 289 20,900 240 Climbing Oakland Center
11:17PM 35.7939 -119.2186 154° Southeast 258 297 20,900  Level Oakland Center
11:18PM 35.7286 -119.1789 154° Southeast 260 299 20,900  Level Oakland Center
11:19PM 35.6619 -119.1408 155° Southeast 262 302 20,900  Level Oakland Center
11:20PM 35.6117 -119.1119 155° Southeast 258 297 20,900  Level Los Angeles Center
11:21PM 35.5469 -119.0747 155° Southeast 256 295 20,900  Level Los Angeles Center
11:22PM 35.4831 -119.0378 155° Southeast 256 295 20,900  Level Los Angeles Center
11:23PM 35.4214 -119.0011 154° Southeast 249 287 20,900  Level Los Angeles Center
11:24PM 35.3706 -118.9719 155° Southeast 250 288 20,900  Level Los Angeles Center
11:25PM 35.2956 -118.9281 154° Southeast 248 285 20,900  Level Los Angeles Center
11:26PM 35.2192 -118.8833 154° Southeast 252 290 20,900  Level Los Angeles Center
11:27PM 35.1547 -118.8478 156° South 255 293 20,900  Level Los Angeles Center
11:28PM 35.0886 -118.8114 156° South 258 297 20,900  Level Los Angeles Center
11:29PM 35.0239 -118.7733 154° Southeast 257 296 20,900 -300 Level Los Angeles Center
11:30PM 34.9592 -118.7361 155° Southeast 257 296 20,400 -780 Descending Los Angeles Center
11:31PM 34.8911 -118.6986 156° South 264 304 19,400 -960 Descending Los Angeles Center
11:32PM 34.8281 -118.6625 155° Southeast 249 287 18,500 -960 Descending Los Angeles Center
11:33PM 34.7553 -118.6203 155° Southeast 241 277 17,500 -1,080 Descending Los Angeles Center
11:34PM 34.6928 -118.5839 154° Southeast 248 285 16,300 -1,260 Descending Los Angeles Center
11:35PM 34.6306 -118.5500 156° South 245 282 15,000 -1,140 Descending Los Angeles Center
11:36PM 34.5711 -118.5125 153° Southeast 239 275 14,000 -1,020 Descending Los Angeles Center
11:37PM 34.5142 -118.4789 154° Southeast 227 261 13,000 -960 Descending Los Angeles Center
11:38PM 34.4600 -118.4478 155° Southeast 215 247 12,100 -1,020 Descending Los Angeles Center
11:39PM 34.4069 -118.4172 155° Southeast 211 243 10,900 -1,320 Descending Los Angeles Center
11:40PM 34.3447 -118.3814 155° Southeast 207 238 9,400 -1,380 Descending Los Angeles Center
11:41PM 34.2917 -118.3519 155° Southeast 207 238 8,100 -1,380 Descending Los Angeles Center
11:42PM 34.2394 -118.3197 153° Southeast 209 241 6,600 -1,080 Descending Los Angeles Center
11:43PM 34.1972 -118.2942 153° Southeast 211 243 6,000 -540 Descending Los Angeles Center
11:44PM 34.1283 -118.2533 154° Southeast 224 258 5,500 -960 Descending Los Angeles Center
11:46PM 34.0597 -118.2442 174° South 242 278 4,100 -1,440 Descending Los Angeles Center
11:47PM 33.9886 -118.2864 206° Southwest 244 281 2,600 -1,500 Descending Los Angeles Center